createdAt,value
2018-07-14T00:00:31.788Z,1013.17
2018-07-14T00:01:31.712Z,1013.20
2018-07-14T00:02:31.645Z,1013.18
2018-07-14T00:03:31.555Z,1013.17
2018-07-14T00:04:31.476Z,1013.18
2018-07-14T00:05:31.401Z,1013.20
2018-07-14T00:06:31.330Z,1013.21
2018-07-14T00:07:31.243Z,1013.22
2018-07-14T00:08:31.166Z,1013.22
2018-07-14T00:09:31.090Z,1013.21
2018-07-14T00:10:30.999Z,1013.23
2018-07-14T00:11:30.924Z,1013.22
2018-07-14T00:12:30.859Z,1013.26
2018-07-14T00:13:30.768Z,1013.24
2018-07-14T00:14:30.688Z,1013.27
2018-07-14T00:15:30.601Z,1013.27
2018-07-14T00:16:30.524Z,1013.27
2018-07-14T00:17:30.450Z,1013.26
2018-07-14T00:18:30.366Z,1013.27
2018-07-14T00:19:30.290Z,1013.30
2018-07-14T00:20:30.212Z,1013.30
2018-07-14T00:21:30.125Z,1013.28
2018-07-14T00:22:30.054Z,1013.27
2018-07-14T00:23:29.980Z,1013.26
2018-07-14T00:24:29.909Z,1013.27
2018-07-14T00:25:29.819Z,1013.27
2018-07-14T00:26:29.739Z,1013.24
2018-07-14T00:27:29.653Z,1013.25
2018-07-14T00:28:29.580Z,1013.25
2018-07-14T00:29:29.506Z,1013.26
2018-07-14T00:30:29.414Z,1013.25
2018-07-14T00:31:29.338Z,1013.26
2018-07-14T00:32:29.265Z,1013.19
2018-07-14T00:33:29.180Z,1013.24
2018-07-14T00:34:29.108Z,1013.20
2018-07-14T00:35:29.033Z,1013.20
2018-07-14T00:36:28.942Z,1013.23
2018-07-14T00:37:28.864Z,1013.20
2018-07-14T00:38:28.808Z,1013.20
2018-07-14T00:39:28.709Z,1013.18
2018-07-14T00:40:28.634Z,1013.22
2018-07-14T00:41:28.559Z,1013.23
2018-07-14T00:42:28.467Z,1013.27
2018-07-14T00:43:28.392Z,1013.27
2018-07-14T00:44:28.318Z,1013.27
2018-07-14T00:45:28.232Z,1013.23
2018-07-14T00:46:28.154Z,1013.28
2018-07-14T00:47:28.070Z,1013.27
2018-07-14T00:48:27.994Z,1013.31
2018-07-14T00:49:27.919Z,1013.32
2018-07-14T00:50:27.839Z,1013.28
2018-07-14T00:51:27.760Z,1013.28
2018-07-14T00:52:27.685Z,1013.32
2018-07-14T00:53:27.594Z,1013.31
2018-07-14T00:54:27.522Z,1013.33
2018-07-14T00:55:27.449Z,1013.34
2018-07-14T00:56:27.364Z,1013.28
2018-07-14T00:57:27.285Z,1013.31
2018-07-14T00:58:27.206Z,1013.31
2018-07-14T00:59:27.116Z,1013.33
2018-07-14T01:00:27.048Z,1013.34
2018-07-14T01:01:26.976Z,1013.31
2018-07-14T01:02:26.882Z,1013.35
2018-07-14T01:03:26.811Z,1013.39
2018-07-14T01:04:26.730Z,1013.34
2018-07-14T01:05:26.642Z,1013.39
2018-07-14T01:06:26.585Z,1013.42
2018-07-14T01:07:26.496Z,1013.39
2018-07-14T01:08:26.406Z,1013.41
2018-07-14T01:09:26.330Z,1013.45
2018-07-14T01:10:26.248Z,1013.37
2018-07-14T01:11:26.171Z,1013.41
2018-07-14T01:12:26.100Z,1013.40
2018-07-14T01:13:26.018Z,1013.40
2018-07-14T01:14:25.934Z,1013.34
2018-07-14T01:15:25.861Z,1013.37
2018-07-14T01:16:25.785Z,1013.38
2018-07-14T01:17:25.697Z,1013.39
2018-07-14T01:18:25.619Z,1013.38
2018-07-14T01:19:25.534Z,1013.40
2018-07-14T01:20:25.459Z,1013.40
2018-07-14T01:21:25.384Z,1013.43
2018-07-14T01:22:25.300Z,1013.44
2018-07-14T01:23:25.226Z,1013.41
2018-07-14T01:24:25.135Z,1013.41
2018-07-14T01:25:25.060Z,1013.44
2018-07-14T01:26:24.991Z,1013.47
2018-07-14T01:27:24.901Z,1013.46
2018-07-14T01:28:24.824Z,1013.45
2018-07-14T01:29:24.752Z,1013.48
2018-07-14T01:30:24.658Z,1013.47
2018-07-14T01:31:24.583Z,1013.45
2018-07-14T01:32:24.503Z,1013.47
2018-07-14T01:33:24.426Z,1013.48
2018-07-14T01:34:24.347Z,1013.48
2018-07-14T01:35:24.261Z,1013.48
2018-07-14T01:36:24.183Z,1013.49
2018-07-14T01:37:24.109Z,1013.45
2018-07-14T01:38:24.025Z,1013.48
2018-07-14T01:39:23.951Z,1013.46
2018-07-14T01:40:23.878Z,1013.47
2018-07-14T01:41:23.787Z,1013.46
2018-07-14T01:42:23.709Z,1013.49
2018-07-14T01:43:23.622Z,1013.46
2018-07-14T01:44:23.548Z,1013.48
2018-07-14T01:45:23.475Z,1013.47
2018-07-14T01:46:23.391Z,1013.49
2018-07-14T01:47:23.315Z,1013.45
2018-07-14T01:48:23.234Z,1013.46
2018-07-14T01:49:23.147Z,1013.46
2018-07-14T01:50:23.093Z,1013.43
2018-07-14T01:51:23.001Z,1013.44
2018-07-14T01:52:22.917Z,1013.46
2018-07-14T01:53:22.841Z,1013.45
2018-07-14T01:54:22.749Z,1013.44
2018-07-14T01:55:22.686Z,1013.48
2018-07-14T01:56:22.603Z,1013.43
2018-07-14T01:57:22.517Z,1013.44
2018-07-14T01:58:22.437Z,1013.45
2018-07-14T01:59:22.363Z,1013.46
2018-07-14T02:00:22.286Z,1013.47
2018-07-14T02:01:22.198Z,1013.44
2018-07-14T02:02:22.115Z,1013.43
2018-07-14T02:03:22.041Z,1013.43
2018-07-14T02:04:21.964Z,1013.44
2018-07-14T02:05:21.888Z,1013.41
2018-07-14T02:06:21.804Z,1013.41
2018-07-14T02:07:21.731Z,1013.41
2018-07-14T02:08:21.641Z,1013.40
2018-07-14T02:09:21.566Z,1013.41
2018-07-14T02:10:21.486Z,1013.36
2018-07-14T02:11:21.399Z,1013.40
2018-07-14T02:12:21.328Z,1013.38
2018-07-14T02:13:21.241Z,1013.32
2018-07-14T02:14:21.162Z,1013.35
2018-07-14T02:15:21.088Z,1013.39
2018-07-14T02:16:21.001Z,1013.37
2018-07-14T02:17:20.928Z,1013.39
2018-07-14T02:18:20.855Z,1013.41
2018-07-14T02:19:20.773Z,1013.44
2018-07-14T02:20:20.688Z,1013.40
2018-07-14T02:21:20.601Z,1013.37
2018-07-14T02:22:20.530Z,1013.36
2018-07-14T02:23:20.454Z,1013.37
2018-07-14T02:24:20.370Z,1013.34
2018-07-14T02:25:20.295Z,1013.39
2018-07-14T02:26:20.207Z,1013.36
2018-07-14T02:27:20.128Z,1013.35
2018-07-14T02:28:20.056Z,1013.38
2018-07-14T02:29:19.975Z,1013.39
2018-07-14T02:30:19.896Z,1013.38
2018-07-14T02:31:19.819Z,1013.40
2018-07-14T02:32:19.740Z,1013.37
2018-07-14T02:33:19.651Z,1013.39
2018-07-14T02:34:19.570Z,1013.35
2018-07-14T02:35:19.493Z,1013.41
2018-07-14T02:36:19.417Z,1013.39
2018-07-14T02:37:19.330Z,1013.43
2018-07-14T02:38:19.258Z,1013.44
2018-07-14T02:39:19.183Z,1013.41
2018-07-14T02:40:19.094Z,1013.44
2018-07-14T02:41:19.019Z,1013.45
2018-07-14T02:42:18.928Z,1013.42
2018-07-14T02:43:18.853Z,1013.42
2018-07-14T02:44:18.784Z,1013.42
2018-07-14T02:45:18.697Z,1013.43
2018-07-14T02:46:18.618Z,1013.42
2018-07-14T02:47:18.530Z,1013.42
2018-07-14T02:48:18.455Z,1013.39
2018-07-14T02:49:18.378Z,1013.42
2018-07-14T02:50:18.296Z,1013.45
2018-07-14T02:51:18.232Z,1013.54
2018-07-14T02:52:18.131Z,1013.53
2018-07-14T02:53:18.057Z,1013.53
2018-07-14T02:54:17.985Z,1013.58
2018-07-14T02:55:17.898Z,1013.54
2018-07-14T02:56:17.822Z,1013.58
2018-07-14T02:57:17.735Z,1013.60
2018-07-14T02:58:17.670Z,1013.61
2018-07-14T02:59:17.584Z,1013.59
2018-07-14T03:00:17.498Z,1013.64
2018-07-14T03:01:17.425Z,1013.63
2018-07-14T03:02:17.331Z,1013.61
2018-07-14T03:03:17.255Z,1013.63
2018-07-14T03:04:17.181Z,1013.64
2018-07-14T03:05:17.095Z,1013.67
2018-07-14T03:06:17.024Z,1013.63
2018-07-14T03:07:16.944Z,1013.61
2018-07-14T03:08:16.857Z,1013.59
2018-07-14T03:09:16.781Z,1013.59
2018-07-14T03:10:16.699Z,1013.59
2018-07-14T03:11:16.623Z,1013.58
2018-07-14T03:12:16.542Z,1013.55
2018-07-14T03:13:16.464Z,1013.57
2018-07-14T03:14:16.384Z,1013.60
2018-07-14T03:15:16.296Z,1013.62
2018-07-14T03:16:16.227Z,1013.59
2018-07-14T03:17:16.141Z,1013.58
2018-07-14T03:18:16.060Z,1013.55
2018-07-14T03:19:15.991Z,1013.56
2018-07-14T03:20:15.895Z,1013.60
2018-07-14T03:21:15.828Z,1013.59
2018-07-14T03:22:15.736Z,1013.58
2018-07-14T03:23:15.661Z,1013.61
2018-07-14T03:24:15.584Z,1013.61
2018-07-14T03:25:15.497Z,1013.60
2018-07-14T03:26:15.427Z,1013.62
2018-07-14T03:27:15.340Z,1013.60
2018-07-14T03:28:15.261Z,1013.64
2018-07-14T03:29:15.186Z,1013.62
2018-07-14T03:30:15.096Z,1013.62
2018-07-14T03:31:15.022Z,1013.57
2018-07-14T03:32:14.937Z,1013.63
2018-07-14T03:33:14.878Z,1013.61
2018-07-14T03:34:14.783Z,1013.59
2018-07-14T03:35:14.697Z,1013.60
2018-07-14T03:36:14.624Z,1013.61
2018-07-14T03:37:14.535Z,1013.62
2018-07-14T03:38:14.464Z,1013.64
2018-07-14T03:39:14.384Z,1013.62
2018-07-14T03:40:14.302Z,1013.62
2018-07-14T03:41:14.223Z,1013.64
2018-07-14T03:42:14.140Z,1013.58
2018-07-14T03:43:14.063Z,1013.60
2018-07-14T03:44:13.978Z,1013.57
2018-07-14T03:45:13.903Z,1013.58
2018-07-14T03:46:13.825Z,1013.55
2018-07-14T03:47:13.737Z,1013.55
2018-07-14T03:48:13.661Z,1013.57
2018-07-14T03:49:13.575Z,1013.57
2018-07-14T03:50:13.503Z,1013.57
2018-07-14T03:51:13.430Z,1013.57
2018-07-14T03:52:13.343Z,1013.57
2018-07-14T03:53:13.278Z,1013.59
2018-07-14T03:54:13.175Z,1013.57
2018-07-14T03:55:13.102Z,1013.56
2018-07-14T03:56:13.030Z,1013.60
2018-07-14T03:57:12.942Z,1013.59
2018-07-14T03:58:12.864Z,1013.62
2018-07-14T03:59:12.776Z,1013.64
2018-07-14T04:00:12.699Z,1013.64
2018-07-14T04:01:12.613Z,1013.62
2018-07-14T04:02:12.540Z,1013.66
2018-07-14T04:03:12.479Z,1013.64
2018-07-14T04:04:12.375Z,1013.61
2018-07-14T04:05:12.300Z,1013.62
2018-07-14T04:06:12.217Z,1013.61
2018-07-14T04:07:12.141Z,1013.68
2018-07-14T04:08:12.080Z,1013.68
2018-07-14T04:09:11.982Z,1013.64
2018-07-14T04:10:11.902Z,1013.71
2018-07-14T04:11:11.816Z,1013.72
2018-07-14T04:12:11.741Z,1013.67
2018-07-14T04:13:11.679Z,1013.66
2018-07-14T04:14:11.575Z,1013.66
2018-07-14T04:15:11.500Z,1013.69
2018-07-14T04:16:11.415Z,1013.67
2018-07-14T04:17:11.340Z,1013.68
2018-07-14T04:18:11.259Z,1013.66
2018-07-14T04:19:11.183Z,1013.65
2018-07-14T04:20:11.103Z,1013.68
2018-07-14T04:21:11.017Z,1013.65
2018-07-14T04:22:10.945Z,1013.73
2018-07-14T04:23:10.858Z,1013.76
2018-07-14T04:24:10.781Z,1013.75
2018-07-14T04:25:10.705Z,1013.79
2018-07-14T04:26:10.627Z,1013.73
2018-07-14T04:27:10.539Z,1013.76
2018-07-14T04:28:10.461Z,1013.76
2018-07-14T04:29:10.383Z,1013.77
2018-07-14T04:30:10.293Z,1013.79
2018-07-14T04:31:10.230Z,1013.79
2018-07-14T04:32:10.141Z,1013.77
2018-07-14T04:33:10.052Z,1013.76
2018-07-14T04:34:09.983Z,1013.79
2018-07-14T04:35:09.895Z,1013.79
2018-07-14T04:36:09.815Z,1013.77
2018-07-14T04:37:09.741Z,1013.79
2018-07-14T04:38:09.657Z,1013.78
2018-07-14T04:39:09.583Z,1013.79
2018-07-14T04:40:09.498Z,1013.80
2018-07-14T04:41:09.424Z,1013.81
2018-07-14T04:42:09.355Z,1013.79
2018-07-14T04:43:09.255Z,1013.84
2018-07-14T04:44:09.183Z,1013.82
2018-07-14T04:45:09.095Z,1013.81
2018-07-14T04:46:09.016Z,1013.83
2018-07-14T04:47:08.946Z,1013.82
2018-07-14T04:48:08.857Z,1013.80
2018-07-14T04:49:08.785Z,1013.83
2018-07-14T04:50:08.697Z,1013.79
2018-07-14T04:51:08.622Z,1013.80
2018-07-14T04:52:08.541Z,1013.80
2018-07-14T04:53:08.498Z,1013.79
2018-07-14T04:54:08.385Z,1013.85
2018-07-14T04:55:08.309Z,1013.85
2018-07-14T04:56:08.226Z,1013.81
2018-07-14T04:57:08.149Z,1013.84
2018-07-14T04:58:08.059Z,1013.85
2018-07-14T04:59:07.982Z,1013.83
2018-07-14T05:00:07.898Z,1013.84
2018-07-14T05:01:07.821Z,1013.81
2018-07-14T05:02:07.742Z,1013.82
2018-07-14T05:03:07.656Z,1013.83
2018-07-14T05:04:07.584Z,1013.83
2018-07-14T05:05:07.508Z,1013.83
2018-07-14T05:06:07.424Z,1013.79
2018-07-14T05:07:07.349Z,1013.82
2018-07-14T05:08:07.270Z,1013.81
2018-07-14T05:09:07.187Z,1013.83
2018-07-14T05:10:07.112Z,1013.81
2018-07-14T05:11:07.026Z,1013.88
2018-07-14T05:12:06.948Z,1013.81
2018-07-14T05:13:06.873Z,1013.83
2018-07-14T05:14:06.784Z,1013.82
2018-07-14T05:15:06.707Z,1013.81
2018-07-14T05:16:06.641Z,1013.84
2018-07-14T05:17:06.551Z,1013.83
2018-07-14T05:18:06.471Z,1013.82
2018-07-14T05:19:06.414Z,1013.86
2018-07-14T05:20:06.309Z,1013.85
2018-07-14T05:21:06.246Z,1013.84
2018-07-14T05:22:06.161Z,1013.88
2018-07-14T05:23:06.074Z,1013.87
2018-07-14T05:24:05.995Z,1013.87
2018-07-14T05:25:05.919Z,1013.89
2018-07-14T05:26:05.836Z,1013.91
2018-07-14T05:27:05.762Z,1013.88
2018-07-14T05:28:05.691Z,1013.93
2018-07-14T05:29:05.645Z,1013.93
2018-07-14T05:30:05.538Z,1013.92
2018-07-14T05:31:05.448Z,1013.92
2018-07-14T05:32:05.362Z,1013.92
2018-07-14T05:33:05.288Z,1013.90
2018-07-14T05:34:05.250Z,1013.90
2018-07-14T05:35:05.122Z,1013.87
2018-07-14T05:36:05.099Z,1013.85
2018-07-14T05:37:04.973Z,1013.86
2018-07-14T05:38:04.891Z,1013.87
2018-07-14T05:39:04.814Z,1013.87
2018-07-14T05:40:04.736Z,1013.85
2018-07-14T05:41:04.648Z,1013.88
2018-07-14T05:42:04.577Z,1013.88
2018-07-14T05:43:04.503Z,1013.90
2018-07-14T05:44:04.489Z,1013.90
2018-07-14T05:45:04.339Z,1013.90
2018-07-14T05:46:04.248Z,1013.89
2018-07-14T05:47:04.184Z,1013.93
2018-07-14T05:48:04.103Z,1013.94
2018-07-14T05:49:04.028Z,1013.96
2018-07-14T05:50:03.937Z,1013.98
2018-07-14T05:51:03.862Z,1013.98
2018-07-14T05:52:03.863Z,1014.02
2018-07-14T05:53:03.700Z,1014.00
2018-07-14T05:54:03.627Z,1013.99
2018-07-14T05:55:03.551Z,1014.05
2018-07-14T05:56:03.464Z,1014.00
2018-07-14T05:57:03.388Z,1014.02
2018-07-14T05:58:03.319Z,1014.05
2018-07-14T05:59:03.228Z,1014.08
2018-07-14T06:00:03.165Z,1014.06
2018-07-14T06:01:03.077Z,1014.09
2018-07-14T06:02:02.986Z,1014.12
2018-07-14T06:03:02.913Z,1014.12
2018-07-14T06:04:02.844Z,1014.13
2018-07-14T06:05:02.754Z,1014.15
2018-07-14T06:06:02.676Z,1014.21
2018-07-14T06:07:02.601Z,1014.22
2018-07-14T06:08:02.512Z,1014.24
2018-07-14T06:09:02.437Z,1014.25
2018-07-14T06:10:02.367Z,1014.27
2018-07-14T06:11:02.279Z,1014.25
2018-07-14T06:12:02.212Z,1014.26
2018-07-14T06:13:02.123Z,1014.28
2018-07-14T06:14:02.054Z,1014.27
2018-07-14T06:15:01.967Z,1014.26
2018-07-14T06:16:01.895Z,1014.29
2018-07-14T06:17:01.818Z,1014.28
2018-07-14T06:18:01.731Z,1014.33
2018-07-14T06:19:01.652Z,1014.32
2018-07-14T06:20:01.581Z,1014.36
2018-07-14T06:21:01.507Z,1014.31
2018-07-14T06:22:01.413Z,1014.28
2018-07-14T06:23:01.343Z,1014.31
2018-07-14T06:24:01.265Z,1014.35
2018-07-14T06:25:01.196Z,1014.39
2018-07-14T06:26:01.108Z,1014.39
2018-07-14T06:27:01.031Z,1014.36
2018-07-14T06:28:00.953Z,1014.36
2018-07-14T06:29:00.877Z,1014.39
2018-07-14T06:30:00.796Z,1014.37
2018-07-14T06:31:00.722Z,1014.36
2018-07-14T06:32:00.655Z,1014.38
2018-07-14T06:33:00.569Z,1014.37
2018-07-14T06:34:00.476Z,1014.36
2018-07-14T06:35:00.401Z,1014.37
2018-07-14T06:36:00.333Z,1014.35
2018-07-14T06:37:00.258Z,1014.36
2018-07-14T06:38:00.168Z,1014.39
2018-07-14T06:39:00.093Z,1014.38
2018-07-14T06:40:00.018Z,1014.37
2018-07-14T06:40:59.940Z,1014.41
2018-07-14T06:41:59.856Z,1014.38
2018-07-14T06:42:59.794Z,1014.40
2018-07-14T06:43:59.703Z,1014.40
2018-07-14T06:44:59.628Z,1014.41
2018-07-14T06:45:59.556Z,1014.44
2018-07-14T06:46:59.469Z,1014.41
2018-07-14T06:47:59.397Z,1014.47
2018-07-14T06:48:59.323Z,1014.50
2018-07-14T06:49:59.233Z,1014.51
2018-07-14T06:50:59.155Z,1014.52
2018-07-14T06:51:59.096Z,1014.54
2018-07-14T06:52:59.008Z,1014.54
2018-07-14T06:53:58.917Z,1014.54
2018-07-14T06:54:58.842Z,1014.55
2018-07-14T06:55:58.770Z,1014.56
2018-07-14T06:56:58.698Z,1014.57
2018-07-14T06:57:58.612Z,1014.60
2018-07-14T06:58:58.536Z,1014.56
2018-07-14T06:59:58.457Z,1014.59
2018-07-14T07:00:58.394Z,1014.56
2018-07-14T07:01:58.296Z,1014.54
2018-07-14T07:02:58.221Z,1014.54
2018-07-14T07:03:58.160Z,1014.52
2018-07-14T07:04:58.074Z,1014.55
2018-07-14T07:05:57.981Z,1014.54
2018-07-14T07:06:57.907Z,1014.56
2018-07-14T07:07:57.834Z,1014.52
2018-07-14T07:08:57.759Z,1014.52
2018-07-14T07:09:57.669Z,1014.51
2018-07-14T07:10:57.593Z,1014.53
2018-07-14T07:11:57.521Z,1014.54
2018-07-14T07:12:57.446Z,1014.54
2018-07-14T07:13:57.362Z,1014.50
2018-07-14T07:14:57.287Z,1014.55
2018-07-14T07:15:57.208Z,1014.53
2018-07-14T07:16:57.137Z,1014.48
2018-07-14T07:17:57.051Z,1014.50
2018-07-14T07:18:56.975Z,1014.50
2018-07-14T07:19:56.899Z,1014.51
2018-07-14T07:20:56.824Z,1014.51
2018-07-14T07:21:56.745Z,1014.51
2018-07-14T07:22:56.657Z,1014.49
2018-07-14T07:23:56.589Z,1014.48
2018-07-14T07:24:56.513Z,1014.52
2018-07-14T07:25:56.435Z,1014.55
2018-07-14T07:26:56.347Z,1014.54
2018-07-14T07:27:56.270Z,1014.54
2018-07-14T07:28:56.196Z,1014.55
2018-07-14T07:29:56.125Z,1014.62
2018-07-14T07:30:56.051Z,1014.60
2018-07-14T07:31:55.970Z,1014.62
2018-07-14T07:32:55.883Z,1014.64
2018-07-14T07:33:55.838Z,1014.63
2018-07-14T07:34:55.737Z,1014.66
2018-07-14T07:35:55.666Z,1014.67
2018-07-14T07:36:55.593Z,1014.62
2018-07-14T07:37:55.510Z,1014.69
2018-07-14T07:38:55.435Z,1014.74
2018-07-14T07:39:55.362Z,1014.73
2018-07-14T07:40:55.276Z,1014.75
2018-07-14T07:41:55.228Z,1014.78
2018-07-14T07:42:55.122Z,1014.80
2018-07-14T07:43:55.056Z,1014.77
2018-07-14T07:44:54.973Z,1014.79
2018-07-14T07:45:54.903Z,1014.81
2018-07-14T07:46:54.828Z,1014.80
2018-07-14T07:47:54.753Z,1014.80
2018-07-14T07:48:54.674Z,1014.85
2018-07-14T07:49:54.606Z,1014.80
2018-07-14T07:50:54.528Z,1014.80
2018-07-14T07:51:54.454Z,1014.78
2018-07-14T07:52:54.377Z,1014.78
2018-07-14T07:53:54.298Z,1014.77
2018-07-14T07:54:54.234Z,1014.77
2018-07-14T07:55:54.167Z,1014.86
2018-07-14T07:56:54.091Z,1014.82
2018-07-14T07:57:54.012Z,1014.80
2018-07-14T07:58:53.955Z,1014.80
2018-07-14T07:59:53.860Z,1014.81
2018-07-14T08:00:53.799Z,1014.83
2018-07-14T08:01:53.728Z,1014.84
2018-07-14T08:02:53.652Z,1014.87
2018-07-14T08:03:53.577Z,1014.84
2018-07-14T08:04:53.506Z,1014.82
2018-07-14T08:05:53.435Z,1014.83
2018-07-14T08:06:53.360Z,1014.80
2018-07-14T08:07:53.287Z,1014.82
2018-07-14T08:08:53.228Z,1014.77
2018-07-14T08:09:53.156Z,1014.84
2018-07-14T08:10:53.080Z,1014.86
2018-07-14T08:11:53.012Z,1014.83
2018-07-14T08:12:52.936Z,1014.86
2018-07-14T08:13:52.874Z,1014.87
2018-07-14T08:14:52.804Z,1014.84
2018-07-14T08:15:52.731Z,1014.93
2018-07-14T08:16:52.656Z,1014.86
2018-07-14T08:17:52.589Z,1014.93
2018-07-14T08:18:52.515Z,1014.90
2018-07-14T08:19:52.457Z,1014.89
2018-07-14T08:20:52.383Z,1014.88
2018-07-14T08:21:52.303Z,1014.92
2018-07-14T08:22:52.255Z,1014.89
2018-07-14T08:23:52.163Z,1014.92
2018-07-14T08:24:52.101Z,1014.96
2018-07-14T08:25:52.035Z,1014.95
2018-07-14T08:26:51.970Z,1014.93
2018-07-14T08:27:51.892Z,1014.95
2018-07-14T08:28:51.817Z,1014.99
2018-07-14T08:29:51.757Z,1015.00
2018-07-14T08:30:51.685Z,1015.04
2018-07-14T08:31:51.618Z,1015.01
2018-07-14T08:32:51.543Z,1015.02
2018-07-14T08:33:51.482Z,1015.03
2018-07-14T08:34:51.405Z,1014.98
2018-07-14T08:35:51.343Z,1015.07
2018-07-14T08:36:51.269Z,1015.01
2018-07-14T08:37:51.203Z,1015.06
2018-07-14T08:38:51.131Z,1015.08
2018-07-14T08:39:51.066Z,1015.06
2018-07-14T08:40:50.992Z,1015.10
2018-07-14T08:41:50.937Z,1015.06
2018-07-14T08:42:50.859Z,1015.07
2018-07-14T08:43:50.862Z,1015.06
2018-07-14T08:44:50.726Z,1015.01
2018-07-14T08:45:50.657Z,1015.03
2018-07-14T08:46:50.594Z,1015.03
2018-07-14T08:47:50.522Z,1015.01
2018-07-14T08:48:50.459Z,1015.05
2018-07-14T08:49:50.381Z,1015.06
2018-07-14T08:50:50.318Z,1015.04
2018-07-14T08:51:50.247Z,1015.09
2018-07-14T08:52:50.185Z,1015.00
2018-07-14T08:53:50.118Z,1015.01
2018-07-14T08:54:50.045Z,1015.06
2018-07-14T08:55:49.979Z,1015.02
2018-07-14T08:56:49.905Z,1015.07
2018-07-14T08:57:49.845Z,1015.05
2018-07-14T08:58:49.772Z,1015.04
2018-07-14T08:59:49.707Z,1015.07
2018-07-14T09:00:49.646Z,1015.09
2018-07-14T09:01:49.573Z,1015.05
2018-07-14T09:02:49.513Z,1015.07
2018-07-14T09:03:49.447Z,1015.10
2018-07-14T09:04:49.371Z,1015.10
2018-07-14T09:05:49.307Z,1015.15
2018-07-14T09:06:49.243Z,1015.17
2018-07-14T09:07:49.174Z,1015.18
2018-07-14T09:08:49.113Z,1015.21
2018-07-14T09:09:49.044Z,1015.16
2018-07-14T09:10:48.970Z,1015.23
2018-07-14T09:11:48.906Z,1015.23
2018-07-14T09:12:48.842Z,1015.23
2018-07-14T09:13:48.772Z,1015.21
2018-07-14T09:14:48.711Z,1015.21
2018-07-14T09:15:48.645Z,1015.27
2018-07-14T09:16:48.571Z,1015.25
2018-07-14T09:17:48.513Z,1015.29
2018-07-14T09:18:48.463Z,1015.29
2018-07-14T09:19:48.374Z,1015.24
2018-07-14T09:20:48.311Z,1015.31
2018-07-14T09:21:48.244Z,1015.30
2018-07-14T09:22:48.183Z,1015.29
2018-07-14T09:23:48.113Z,1015.30
2018-07-14T09:24:48.054Z,1015.33
2018-07-14T09:25:47.987Z,1015.33
2018-07-14T09:26:47.908Z,1015.36
2018-07-14T09:27:47.847Z,1015.32
2018-07-14T09:28:47.785Z,1015.34
2018-07-14T09:29:47.726Z,1015.39
2018-07-14T09:30:47.652Z,1015.40
2018-07-14T09:31:47.585Z,1015.41
2018-07-14T09:32:47.521Z,1015.39
2018-07-14T09:33:47.451Z,1015.47
2018-07-14T09:34:47.388Z,1015.53
2018-07-14T09:35:47.327Z,1015.47
2018-07-14T09:36:47.265Z,1015.46
2018-07-14T09:37:47.186Z,1015.50
2018-07-14T09:38:47.129Z,1015.46
2018-07-14T09:39:47.066Z,1015.47
2018-07-14T09:40:47.003Z,1015.49
2018-07-14T09:41:46.924Z,1015.48
2018-07-14T09:42:46.865Z,1015.47
2018-07-14T09:43:46.797Z,1015.52
2018-07-14T09:44:46.735Z,1015.48
2018-07-14T09:45:46.672Z,1015.49
2018-07-14T09:46:46.601Z,1015.53
2018-07-14T09:47:46.579Z,1015.51
2018-07-14T09:48:46.474Z,1015.49
2018-07-14T09:49:46.404Z,1015.49
2018-07-14T09:50:46.343Z,1015.53
2018-07-14T09:51:46.277Z,1015.56
2018-07-14T09:52:46.216Z,1015.39
2018-07-14T09:53:46.140Z,1015.56
2018-07-14T09:54:46.073Z,1015.59
2018-07-14T09:55:46.016Z,1015.59
2018-07-14T09:56:45.940Z,1015.57
2018-07-14T09:57:45.874Z,1015.59
2018-07-14T09:58:45.812Z,1015.56
2018-07-14T09:59:45.790Z,1015.55
2018-07-14T10:00:45.688Z,1015.55
2018-07-14T10:01:45.618Z,1015.56
2018-07-14T10:02:45.543Z,1015.55
2018-07-14T10:03:45.473Z,1015.55
2018-07-14T10:04:45.400Z,1015.49
2018-07-14T10:05:45.344Z,1015.51
2018-07-14T10:06:45.278Z,1015.46
2018-07-14T10:07:45.205Z,1015.45
2018-07-14T10:08:45.144Z,1015.44
2018-07-14T10:09:45.067Z,1015.53
2018-07-14T10:10:45.005Z,1015.27
2018-07-14T10:11:44.940Z,1015.37
2018-07-14T10:12:44.865Z,1015.24
2018-07-14T10:13:44.808Z,1014.94
2018-07-14T10:14:44.733Z,1015.01
2018-07-14T10:15:44.669Z,1014.94
2018-07-14T10:16:44.604Z,1015.01
2018-07-14T10:17:44.560Z,1015.01
2018-07-14T10:18:44.463Z,1014.96
2018-07-14T10:19:44.406Z,1014.98
2018-07-14T10:20:44.332Z,1014.92
2018-07-14T10:21:44.266Z,1014.91
2018-07-14T10:22:44.191Z,1014.92
2018-07-14T10:23:44.126Z,1014.95
2018-07-14T10:24:44.051Z,1014.98
2018-07-14T10:25:44.102Z,1014.95
2018-07-14T10:26:43.919Z,1014.93
2018-07-14T10:27:43.840Z,1014.95
2018-07-14T10:28:43.776Z,1015.02
2018-07-14T10:29:43.705Z,1015.01
2018-07-14T10:30:43.632Z,1015.00
2018-07-14T10:31:43.570Z,1014.97
2018-07-14T10:32:43.499Z,1014.95
2018-07-14T10:33:43.556Z,1014.98
2018-07-14T10:34:43.355Z,1014.95
2018-07-14T10:35:43.281Z,1014.90
2018-07-14T10:36:43.206Z,1014.88
2018-07-14T10:37:43.139Z,1014.78
2018-07-14T10:38:43.084Z,1014.83
2018-07-14T10:39:42.992Z,1014.81
2018-07-14T10:40:42.917Z,1014.79
2018-07-14T10:41:42.858Z,1014.83
2018-07-14T10:42:42.784Z,1014.87
2018-07-14T10:43:42.705Z,1014.91
2018-07-14T10:44:42.631Z,1015.08
2018-07-14T10:45:42.564Z,1015.11
2018-07-14T10:46:42.507Z,1015.15
2018-07-14T10:47:42.420Z,1014.99
2018-07-14T10:48:42.345Z,1015.05
2018-07-14T10:49:42.266Z,1015.11
2018-07-14T10:50:42.203Z,1014.97
2018-07-14T10:51:42.138Z,1015.02
2018-07-14T10:52:42.060Z,1015.11
2018-07-14T10:53:41.983Z,1015.17
2018-07-14T10:54:41.920Z,1015.11
2018-07-14T10:55:41.842Z,1015.14
2018-07-14T10:56:41.768Z,1015.10
2018-07-14T10:57:41.708Z,1015.07
2018-07-14T10:58:41.646Z,1015.09
2018-07-14T10:59:41.571Z,1015.11
2018-07-14T11:00:41.505Z,1015.07
2018-07-14T11:01:41.446Z,1015.08
2018-07-14T11:02:41.361Z,1015.06
2018-07-14T11:03:41.299Z,1015.02
2018-07-14T11:04:41.225Z,1015.04
2018-07-14T11:05:41.157Z,1015.07
2018-07-14T11:06:41.094Z,1015.10
2018-07-14T11:07:41.023Z,1015.11
2018-07-14T11:08:40.959Z,1015.10
2018-07-14T11:09:40.893Z,1015.09
2018-07-14T11:10:40.818Z,1015.06
2018-07-14T11:11:40.758Z,1015.04
2018-07-14T11:12:40.696Z,1015.03
2018-07-14T11:13:40.626Z,1015.02
2018-07-14T11:14:40.562Z,1014.99
2018-07-14T11:15:40.495Z,1015.02
2018-07-14T11:16:40.444Z,1014.93
2018-07-14T11:17:40.379Z,1014.96
2018-07-14T11:18:40.310Z,1014.99
2018-07-14T11:19:40.238Z,1015.01
2018-07-14T11:20:40.175Z,1015.03
2018-07-14T11:21:40.109Z,1015.01
2018-07-14T11:22:40.049Z,1015.00
2018-07-14T11:23:40.047Z,1015.03
2018-07-14T11:24:39.910Z,1014.90
2018-07-14T11:25:39.845Z,1015.03
2018-07-14T11:26:39.783Z,1014.99
2018-07-14T11:27:39.722Z,1014.96
2018-07-14T11:28:39.660Z,1014.92
2018-07-14T11:29:39.601Z,1014.97
2018-07-14T11:30:39.530Z,1014.95
2018-07-14T11:31:39.460Z,1014.93
2018-07-14T11:32:39.399Z,1014.94
2018-07-14T11:33:39.339Z,1014.88
2018-07-14T11:34:39.369Z,1014.96
2018-07-14T11:35:39.213Z,1014.93
2018-07-14T11:36:39.150Z,1014.93
2018-07-14T11:37:39.108Z,1014.96
2018-07-14T11:38:39.008Z,1014.95
2018-07-14T11:39:38.953Z,1014.95
2018-07-14T11:40:38.890Z,1014.95
2018-07-14T11:41:38.826Z,1014.98
2018-07-14T11:42:38.761Z,1014.99
2018-07-14T11:43:38.696Z,1014.96
2018-07-14T11:44:38.647Z,1014.95
2018-07-14T11:45:38.564Z,1014.99
2018-07-14T11:46:38.514Z,1015.02
2018-07-14T11:47:38.468Z,1014.95
2018-07-14T11:48:38.373Z,1014.91
2018-07-14T11:49:38.313Z,1015.01
2018-07-14T11:50:38.259Z,1014.98
2018-07-14T11:51:38.191Z,1014.95
2018-07-14T11:52:38.130Z,1014.96
2018-07-14T11:53:38.051Z,1014.88
2018-07-14T11:54:37.987Z,1014.86
2018-07-14T11:55:37.928Z,1014.83
2018-07-14T11:56:37.865Z,1014.87
2018-07-14T11:57:37.799Z,1014.85
2018-07-14T11:58:37.736Z,1014.82
2018-07-14T11:59:37.688Z,1014.79
2018-07-14T12:00:37.612Z,1014.82
2018-07-14T12:01:37.543Z,1014.76
2018-07-14T12:02:37.484Z,1014.72
2018-07-14T12:03:37.419Z,1014.75
2018-07-14T12:04:37.351Z,1014.73